sensor_id;sensor_type;location;lat;lon;timestamp;P1;durP1;ratioP1;P2;durP2;ratioP2
31674;SDS011;18276;45.520;11.018;2023-05-10T00:02:08;9.55;;;6.25;;
31674;SDS011;18276;45.520;11.018;2023-05-10T00:04:35;8.32;;;6.32;;
31674;SDS011;18276;45.520;11.018;2023-05-10T00:07:02;8.45;;;6.57;;
31674;SDS011;18276;45.520;11.018;2023-05-10T00:09:29;9.10;;;6.20;;
31674;SDS011;18276;45.520;11.018;2023-05-10T00:11:56;7.15;;;5.47;;
31674;SDS011;18276;45.520;11.018;2023-05-10T00:14:24;7.43;;;5.05;;
31674;SDS011;18276;45.520;11.018;2023-05-10T00:16:51;7.05;;;4.65;;
31674;SDS011;18276;45.520;11.018;2023-05-10T00:19:18;7.43;;;4.65;;
31674;SDS011;18276;45.520;11.018;2023-05-10T00:21:46;5.50;;;3.75;;
31674;SDS011;18276;45.520;11.018;2023-05-10T00:24:13;6.15;;;3.55;;
31674;SDS011;18276;45.520;11.018;2023-05-10T00:26:39;4.45;;;3.35;;
31674;SDS011;18276;45.520;11.018;2023-05-10T00:29:08;7.47;;;3.70;;
31674;SDS011;18276;45.520;11.018;2023-05-10T00:31:35;4.70;;;3.55;;
31674;SDS011;18276;45.520;11.018;2023-05-10T00:34:03;4.10;;;3.25;;
31674;SDS011;18276;45.520;11.018;2023-05-10T00:36:29;4.82;;;3.75;;
31674;SDS011;18276;45.520;11.018;2023-05-10T00:38:57;5.07;;;3.17;;
31674;SDS011;18276;45.520;11.018;2023-05-10T00:41:25;6.55;;;3.72;;
31674;SDS011;18276;45.520;11.018;2023-05-10T00:43:53;5.53;;;3.08;;
31674;SDS011;18276;45.520;11.018;2023-05-10T00:46:20;6.53;;;3.42;;
31674;SDS011;18276;45.520;11.018;2023-05-10T00:48:47;5.05;;;2.97;;
31674;SDS011;18276;45.520;11.018;2023-05-10T00:51:15;4.78;;;2.63;;
31674;SDS011;18276;45.520;11.018;2023-05-10T00:53:44;5.07;;;3.10;;
31674;SDS011;18276;45.520;11.018;2023-05-10T00:56:12;8.68;;;3.53;;
31674;SDS011;18276;45.520;11.018;2023-05-10T00:58:39;5.85;;;2.97;;
31674;SDS011;18276;45.520;11.018;2023-05-10T01:01:07;3.95;;;3.22;;
31674;SDS011;18276;45.520;11.018;2023-05-10T01:03:35;5.05;;;2.90;;
31674;SDS011;18276;45.520;11.018;2023-05-10T01:06:03;3.83;;;2.58;;
31674;SDS011;18276;45.520;11.018;2023-05-10T01:08:30;3.65;;;2.72;;
31674;SDS011;18276;45.520;11.018;2023-05-10T01:10:57;4.78;;;2.58;;
31674;SDS011;18276;45.520;11.018;2023-05-10T01:13:37;5.15;;;2.95;;
31674;SDS011;18276;45.520;11.018;2023-05-10T01:16:07;4.60;;;3.08;;
31674;SDS011;18276;45.520;11.018;2023-05-10T01:18:36;6.38;;;2.90;;
31674;SDS011;18276;45.520;11.018;2023-05-10T01:26:48;7.55;;;3.13;;
31674;SDS011;18276;45.520;11.018;2023-05-10T01:32:59;3.33;;;2.85;;
31674;SDS011;18276;45.520;11.018;2023-05-10T01:35:38;3.55;;;3.00;;
31674;SDS011;18276;45.520;11.018;2023-05-10T01:38:24;3.50;;;2.80;;
31674;SDS011;18276;45.520;11.018;2023-05-10T01:43:37;5.57;;;2.92;;
31674;SDS011;18276;45.520;11.018;2023-05-10T01:48:58;5.35;;;2.60;;
31674;SDS011;18276;45.520;11.018;2023-05-10T01:51:27;3.75;;;3.13;;
31674;SDS011;18276;45.520;11.018;2023-05-10T01:54:03;3.95;;;2.45;;
31674;SDS011;18276;45.520;11.018;2023-05-10T01:56:32;3.58;;;2.63;;
31674;SDS011;18276;45.520;11.018;2023-05-10T01:59:01;6.68;;;3.00;;
31674;SDS011;18276;45.520;11.018;2023-05-10T02:01:35;3.92;;;2.47;;
31674;SDS011;18276;45.520;11.018;2023-05-10T02:04:04;4.53;;;2.90;;
31674;SDS011;18276;45.520;11.018;2023-05-10T02:06:35;4.97;;;2.83;;
31674;SDS011;18276;45.520;11.018;2023-05-10T02:09:04;4.68;;;2.60;;
31674;SDS011;18276;45.520;11.018;2023-05-10T02:11:32;6.88;;;2.53;;
31674;SDS011;18276;45.520;11.018;2023-05-10T02:14:00;6.18;;;3.38;;
31674;SDS011;18276;45.520;11.018;2023-05-10T02:16:28;7.28;;;2.70;;
31674;SDS011;18276;45.520;11.018;2023-05-10T02:18:58;4.05;;;2.88;;
31674;SDS011;18276;45.520;11.018;2023-05-10T02:21:28;3.88;;;2.60;;
31674;SDS011;18276;45.520;11.018;2023-05-10T02:23:56;4.30;;;2.95;;
31674;SDS011;18276;45.520;11.018;2023-05-10T02:26:24;2.63;;;2.30;;
31674;SDS011;18276;45.520;11.018;2023-05-10T02:28:53;3.47;;;3.08;;
31674;SDS011;18276;45.520;11.018;2023-05-10T02:31:21;4.32;;;2.50;;
31674;SDS011;18276;45.520;11.018;2023-05-10T02:33:50;4.88;;;3.00;;
31674;SDS011;18276;45.520;11.018;2023-05-10T02:36:17;5.43;;;3.33;;
31674;SDS011;18276;45.520;11.018;2023-05-10T02:38:47;3.92;;;3.17;;
31674;SDS011;18276;45.520;11.018;2023-05-10T02:41:16;4.55;;;2.90;;
31674;SDS011;18276;45.520;11.018;2023-05-10T02:43:44;4.88;;;2.63;;
31674;SDS011;18276;45.520;11.018;2023-05-10T02:46:12;5.15;;;3.03;;
31674;SDS011;18276;45.520;11.018;2023-05-10T02:48:39;4.43;;;3.25;;
31674;SDS011;18276;45.520;11.018;2023-05-10T02:51:06;5.40;;;2.95;;
31674;SDS011;18276;45.520;11.018;2023-05-10T02:53:35;5.07;;;3.42;;
31674;SDS011;18276;45.520;11.018;2023-05-10T02:56:05;3.45;;;2.65;;
31674;SDS011;18276;45.520;11.018;2023-05-10T02:58:39;3.67;;;3.08;;
31674;SDS011;18276;45.520;11.018;2023-05-10T03:01:07;3.20;;;2.85;;
31674;SDS011;18276;45.520;11.018;2023-05-10T03:03:34;5.38;;;3.38;;
31674;SDS011;18276;45.520;11.018;2023-05-10T03:06:01;5.25;;;3.10;;
31674;SDS011;18276;45.520;11.018;2023-05-10T03:08:28;4.30;;;2.83;;
31674;SDS011;18276;45.520;11.018;2023-05-10T03:11:09;6.80;;;3.30;;
31674;SDS011;18276;45.520;11.018;2023-05-10T03:17:11;4.32;;;3.10;;
31674;SDS011;18276;45.520;11.018;2023-05-10T03:22:37;4.95;;;3.67;;
31674;SDS011;18276;45.520;11.018;2023-05-10T03:25:07;6.15;;;3.22;;
31674;SDS011;18276;45.520;11.018;2023-05-10T03:27:40;3.28;;;2.97;;
31674;SDS011;18276;45.520;11.018;2023-05-10T03:30:10;6.55;;;3.67;;
31674;SDS011;18276;45.520;11.018;2023-05-10T03:32:38;4.70;;;3.67;;
31674;SDS011;18276;45.520;11.018;2023-05-10T03:35:06;5.13;;;3.35;;
31674;SDS011;18276;45.520;11.018;2023-05-10T03:37:36;4.72;;;3.33;;
31674;SDS011;18276;45.520;11.018;2023-05-10T03:40:03;6.00;;;3.45;;
31674;SDS011;18276;45.520;11.018;2023-05-10T03:42:33;5.32;;;3.80;;
31674;SDS011;18276;45.520;11.018;2023-05-10T03:45:00;4.53;;;3.75;;
31674;SDS011;18276;45.520;11.018;2023-05-10T03:47:27;3.88;;;3.28;;
31674;SDS011;18276;45.520;11.018;2023-05-10T03:49:54;7.50;;;4.22;;
31674;SDS011;18276;45.520;11.018;2023-05-10T03:52:21;6.57;;;3.72;;
31674;SDS011;18276;45.520;11.018;2023-05-10T03:54:48;4.50;;;3.55;;
31674;SDS011;18276;45.520;11.018;2023-05-10T03:57:15;5.68;;;3.90;;
31674;SDS011;18276;45.520;11.018;2023-05-10T03:59:42;4.47;;;3.65;;
31674;SDS011;18276;45.520;11.018;2023-05-10T04:02:09;6.63;;;4.55;;
31674;SDS011;18276;45.520;11.018;2023-05-10T04:04:36;5.53;;;4.03;;
31674;SDS011;18276;45.520;11.018;2023-05-10T04:07:03;6.72;;;3.97;;
31674;SDS011;18276;45.520;11.018;2023-05-10T04:09:30;6.10;;;4.25;;
31674;SDS011;18276;45.520;11.018;2023-05-10T04:11:59;5.80;;;4.13;;
31674;SDS011;18276;45.520;11.018;2023-05-10T04:14:28;8.80;;;4.53;;
31674;SDS011;18276;45.520;11.018;2023-05-10T04:16:55;8.75;;;4.40;;
31674;SDS011;18276;45.520;11.018;2023-05-10T04:19:22;6.88;;;4.18;;
31674;SDS011;18276;45.520;11.018;2023-05-10T04:21:50;6.80;;;4.15;;
31674;SDS011;18276;45.520;11.018;2023-05-10T04:24:16;6.50;;;4.13;;
31674;SDS011;18276;45.520;11.018;2023-05-10T04:26:43;8.82;;;4.40;;
31674;SDS011;18276;45.520;11.018;2023-05-10T04:29:10;6.03;;;3.85;;
31674;SDS011;18276;45.520;11.018;2023-05-10T04:31:37;10.25;;;4.00;;
31674;SDS011;18276;45.520;11.018;2023-05-10T04:34:04;5.72;;;3.67;;
31674;SDS011;18276;45.520;11.018;2023-05-10T04:36:32;6.18;;;4.47;;
31674;SDS011;18276;45.520;11.018;2023-05-10T04:39:01;7.22;;;4.20;;
31674;SDS011;18276;45.520;11.018;2023-05-10T04:41:29;6.05;;;3.85;;
31674;SDS011;18276;45.520;11.018;2023-05-10T04:43:56;7.32;;;4.80;;
31674;SDS011;18276;45.520;11.018;2023-05-10T04:46:23;7.90;;;4.50;;
31674;SDS011;18276;45.520;11.018;2023-05-10T04:48:50;6.63;;;4.22;;
31674;SDS011;18276;45.520;11.018;2023-05-10T04:51:17;5.75;;;4.40;;
31674;SDS011;18276;45.520;11.018;2023-05-10T04:53:44;6.55;;;4.20;;
31674;SDS011;18276;45.520;11.018;2023-05-10T04:56:27;7.60;;;4.65;;
31674;SDS011;18276;45.520;11.018;2023-05-10T04:58:54;8.40;;;5.10;;
31674;SDS011;18276;45.520;11.018;2023-05-10T05:01:21;8.52;;;4.47;;
31674;SDS011;18276;45.520;11.018;2023-05-10T05:03:49;7.97;;;5.22;;
31674;SDS011;18276;45.520;11.018;2023-05-10T05:06:17;7.57;;;4.80;;
31674;SDS011;18276;45.520;11.018;2023-05-10T05:08:44;8.40;;;4.70;;
31674;SDS011;18276;45.520;11.018;2023-05-10T05:11:10;8.40;;;4.80;;
31674;SDS011;18276;45.520;11.018;2023-05-10T05:13:37;6.70;;;4.22;;
31674;SDS011;18276;45.520;11.018;2023-05-10T05:16:05;7.60;;;4.55;;
31674;SDS011;18276;45.520;11.018;2023-05-10T05:18:32;9.50;;;3.75;;
31674;SDS011;18276;45.520;11.018;2023-05-10T05:20:59;8.85;;;4.15;;
31674;SDS011;18276;45.520;11.018;2023-05-10T05:23:26;7.70;;;4.07;;
31674;SDS011;18276;45.520;11.018;2023-05-10T05:25:54;11.15;;;4.25;;
31674;SDS011;18276;45.520;11.018;2023-05-10T05:28:21;9.15;;;4.60;;
31674;SDS011;18276;45.520;11.018;2023-05-10T05:30:48;8.20;;;4.30;;
31674;SDS011;18276;45.520;11.018;2023-05-10T05:33:15;7.40;;;4.50;;
31674;SDS011;18276;45.520;11.018;2023-05-10T05:35:42;7.88;;;4.32;;
31674;SDS011;18276;45.520;11.018;2023-05-10T05:38:16;7.07;;;4.38;;
31674;SDS011;18276;45.520;11.018;2023-05-10T05:40:44;6.95;;;4.70;;
31674;SDS011;18276;45.520;11.018;2023-05-10T05:43:11;13.15;;;4.22;;
31674;SDS011;18276;45.520;11.018;2023-05-10T05:45:38;7.25;;;4.20;;
31674;SDS011;18276;45.520;11.018;2023-05-10T05:48:05;7.38;;;4.43;;
31674;SDS011;18276;45.520;11.018;2023-05-10T05:50:32;10.90;;;4.25;;
31674;SDS011;18276;45.520;11.018;2023-05-10T05:52:59;8.82;;;4.53;;
31674;SDS011;18276;45.520;11.018;2023-05-10T05:55:27;8.55;;;4.30;;
31674;SDS011;18276;45.520;11.018;2023-05-10T05:57:55;11.13;;;4.45;;
31674;SDS011;18276;45.520;11.018;2023-05-10T06:00:22;8.90;;;4.68;;
31674;SDS011;18276;45.520;11.018;2023-05-10T06:02:49;8.15;;;5.13;;
31674;SDS011;18276;45.520;11.018;2023-05-10T06:05:16;7.47;;;4.30;;
31674;SDS011;18276;45.520;11.018;2023-05-10T06:07:44;7.65;;;4.65;;
31674;SDS011;18276;45.520;11.018;2023-05-10T06:10:11;6.22;;;4.22;;
31674;SDS011;18276;45.520;11.018;2023-05-10T06:12:38;9.38;;;4.20;;
31674;SDS011;18276;45.520;11.018;2023-05-10T06:15:05;5.82;;;4.10;;
31674;SDS011;18276;45.520;11.018;2023-05-10T06:17:32;5.57;;;4.22;;
31674;SDS011;18276;45.520;11.018;2023-05-10T06:19:59;6.38;;;4.07;;
31674;SDS011;18276;45.520;11.018;2023-05-10T06:22:26;5.82;;;4.47;;
31674;SDS011;18276;45.520;11.018;2023-05-10T06:24:53;6.45;;;4.72;;
31674;SDS011;18276;45.520;11.018;2023-05-10T06:27:21;9.55;;;4.38;;
31674;SDS011;18276;45.520;11.018;2023-05-10T06:29:48;5.82;;;3.83;;
31674;SDS011;18276;45.520;11.018;2023-05-10T06:32:21;5.65;;;3.95;;
31674;SDS011;18276;45.520;11.018;2023-05-10T06:34:48;7.25;;;4.07;;
31674;SDS011;18276;45.520;11.018;2023-05-10T06:37:15;5.75;;;4.30;;
31674;SDS011;18276;45.520;11.018;2023-05-10T06:39:42;4.78;;;3.95;;
31674;SDS011;18276;45.520;11.018;2023-05-10T06:42:09;8.90;;;5.43;;
31674;SDS011;18276;45.520;11.018;2023-05-10T06:44:37;5.90;;;4.18;;
31674;SDS011;18276;45.520;11.018;2023-05-10T06:47:04;7.18;;;4.53;;
31674;SDS011;18276;45.520;11.018;2023-05-10T06:49:31;7.07;;;4.40;;
31674;SDS011;18276;45.520;11.018;2023-05-10T06:51:57;6.10;;;4.15;;
31674;SDS011;18276;45.520;11.018;2023-05-10T06:54:24;8.77;;;4.15;;
31674;SDS011;18276;45.520;11.018;2023-05-10T06:56:51;4.68;;;3.72;;
31674;SDS011;18276;45.520;11.018;2023-05-10T06:59:19;9.52;;;4.05;;
31674;SDS011;18276;45.520;11.018;2023-05-10T07:01:47;5.93;;;3.70;;
31674;SDS011;18276;45.520;11.018;2023-05-10T07:04:14;9.13;;;4.28;;
31674;SDS011;18276;45.520;11.018;2023-05-10T07:06:41;5.72;;;3.65;;
31674;SDS011;18276;45.520;11.018;2023-05-10T07:09:08;5.75;;;3.47;;
31674;SDS011;18276;45.520;11.018;2023-05-10T07:11:36;6.38;;;3.83;;
31674;SDS011;18276;45.520;11.018;2023-05-10T07:14:03;7.70;;;3.78;;
31674;SDS011;18276;45.520;11.018;2023-05-10T07:16:30;7.03;;;3.83;;
31674;SDS011;18276;45.520;11.018;2023-05-10T07:18:57;4.95;;;4.28;;
31674;SDS011;18276;45.520;11.018;2023-05-10T07:21:24;7.38;;;3.85;;
31674;SDS011;18276;45.520;11.018;2023-05-10T07:23:55;13.30;;;4.47;;
31674;SDS011;18276;45.520;11.018;2023-05-10T07:26:22;8.18;;;3.90;;
31674;SDS011;18276;45.520;11.018;2023-05-10T07:28:48;7.80;;;4.20;;
31674;SDS011;18276;45.520;11.018;2023-05-10T07:31:16;9.13;;;4.30;;
31674;SDS011;18276;45.520;11.018;2023-05-10T07:33:43;6.30;;;4.38;;
31674;SDS011;18276;45.520;11.018;2023-05-10T07:36:10;5.47;;;3.90;;
31674;SDS011;18276;45.520;11.018;2023-05-10T07:38:36;7.45;;;3.97;;
31674;SDS011;18276;45.520;11.018;2023-05-10T07:41:06;7.38;;;4.82;;
31674;SDS011;18276;45.520;11.018;2023-05-10T07:43:33;6.40;;;4.45;;
31674;SDS011;18276;45.520;11.018;2023-05-10T07:46:00;7.28;;;4.25;;
31674;SDS011;18276;45.520;11.018;2023-05-10T07:48:27;14.85;;;8.35;;
31674;SDS011;18276;45.520;11.018;2023-05-10T07:50:54;5.30;;;3.88;;
31674;SDS011;18276;45.520;11.018;2023-05-10T07:53:21;6.97;;;4.10;;
31674;SDS011;18276;45.520;11.018;2023-05-10T07:55:51;5.68;;;4.20;;
31674;SDS011;18276;45.520;11.018;2023-05-10T07:58:23;6.30;;;3.92;;
31674;SDS011;18276;45.520;11.018;2023-05-10T08:00:50;6.78;;;4.25;;
31674;SDS011;18276;45.520;11.018;2023-05-10T08:03:17;7.40;;;4.50;;
31674;SDS011;18276;45.520;11.018;2023-05-10T08:05:45;5.50;;;3.88;;
31674;SDS011;18276;45.520;11.018;2023-05-10T08:08:12;7.13;;;4.22;;
31674;SDS011;18276;45.520;11.018;2023-05-10T08:10:39;7.20;;;4.80;;
31674;SDS011;18276;45.520;11.018;2023-05-10T08:13:06;6.20;;;4.50;;
31674;SDS011;18276;45.520;11.018;2023-05-10T08:15:33;6.07;;;4.55;;
31674;SDS011;18276;45.520;11.018;2023-05-10T08:18:00;7.72;;;4.85;;
31674;SDS011;18276;45.520;11.018;2023-05-10T08:20:27;6.88;;;4.22;;
31674;SDS011;18276;45.520;11.018;2023-05-10T08:22:54;8.20;;;4.90;;
31674;SDS011;18276;45.520;11.018;2023-05-10T08:25:21;6.45;;;4.78;;
31674;SDS011;18276;45.520;11.018;2023-05-10T08:27:48;6.45;;;4.40;;
31674;SDS011;18276;45.520;11.018;2023-05-10T08:30:15;6.55;;;4.78;;
31674;SDS011;18276;45.520;11.018;2023-05-10T08:32:42;4.97;;;4.00;;
31674;SDS011;18276;45.520;11.018;2023-05-10T08:35:09;5.43;;;3.97;;
31674;SDS011;18276;45.520;11.018;2023-05-10T08:37:36;7.47;;;4.63;;
31674;SDS011;18276;45.520;11.018;2023-05-10T08:40:03;6.93;;;4.55;;
31674;SDS011;18276;45.520;11.018;2023-05-10T08:42:30;5.35;;;4.30;;
31674;SDS011;18276;45.520;11.018;2023-05-10T08:45:04;6.30;;;5.15;;
31674;SDS011;18276;45.520;11.018;2023-05-10T08:47:32;8.32;;;4.80;;
31674;SDS011;18276;45.520;11.018;2023-05-10T08:49:59;7.75;;;5.40;;
31674;SDS011;18276;45.520;11.018;2023-05-10T08:52:29;4.85;;;4.20;;
31674;SDS011;18276;45.520;11.018;2023-05-10T08:54:58;6.60;;;5.43;;
31674;SDS011;18276;45.520;11.018;2023-05-10T08:57:25;6.40;;;4.68;;
31674;SDS011;18276;45.520;11.018;2023-05-10T08:59:52;10.48;;;5.68;;
31674;SDS011;18276;45.520;11.018;2023-05-10T09:02:20;8.13;;;5.32;;
31674;SDS011;18276;45.520;11.018;2023-05-10T09:04:48;8.48;;;5.35;;
31674;SDS011;18276;45.520;11.018;2023-05-10T09:07:15;7.32;;;5.13;;
31674;SDS011;18276;45.520;11.018;2023-05-10T09:09:43;6.40;;;4.43;;
31674;SDS011;18276;45.520;11.018;2023-05-10T09:12:12;6.28;;;4.90;;
31674;SDS011;18276;45.520;11.018;2023-05-10T09:14:42;8.45;;;5.30;;
31674;SDS011;18276;45.520;11.018;2023-05-10T09:17:10;6.28;;;5.03;;
31674;SDS011;18276;45.520;11.018;2023-05-10T09:19:38;11.05;;;7.57;;
31674;SDS011;18276;45.520;11.018;2023-05-10T09:22:05;13.20;;;7.68;;
31674;SDS011;18276;45.520;11.018;2023-05-10T09:24:32;9.23;;;5.30;;
31674;SDS011;18276;45.520;11.018;2023-05-10T09:26:59;6.57;;;4.82;;
31674;SDS011;18276;45.520;11.018;2023-05-10T09:29:38;7.50;;;4.80;;
31674;SDS011;18276;45.520;11.018;2023-05-10T09:32:09;10.93;;;6.43;;
31674;SDS011;18276;45.520;11.018;2023-05-10T09:34:36;6.78;;;4.93;;
31674;SDS011;18276;45.520;11.018;2023-05-10T09:37:06;6.72;;;4.90;;
31674;SDS011;18276;45.520;11.018;2023-05-10T09:39:37;6.43;;;5.38;;
31674;SDS011;18276;45.520;11.018;2023-05-10T09:42:05;4.97;;;4.32;;
31674;SDS011;18276;45.520;11.018;2023-05-10T09:44:33;7.05;;;4.25;;
31674;SDS011;18276;45.520;11.018;2023-05-10T09:47:01;5.65;;;4.35;;
31674;SDS011;18276;45.520;11.018;2023-05-10T09:49:29;5.35;;;3.92;;
31674;SDS011;18276;45.520;11.018;2023-05-10T09:52:03;8.07;;;4.40;;
31674;SDS011;18276;45.520;11.018;2023-05-10T09:54:31;7.00;;;4.50;;
31674;SDS011;18276;45.520;11.018;2023-05-10T09:56:59;14.02;;;7.82;;
31674;SDS011;18276;45.520;11.018;2023-05-10T09:59:27;14.60;;;9.30;;
31674;SDS011;18276;45.520;11.018;2023-05-10T10:01:58;8.52;;;5.30;;
31674;SDS011;18276;45.520;11.018;2023-05-10T10:04:27;6.20;;;4.68;;
31674;SDS011;18276;45.520;11.018;2023-05-10T10:07:01;5.50;;;4.63;;
31674;SDS011;18276;45.520;11.018;2023-05-10T10:09:30;8.90;;;4.72;;
31674;SDS011;18276;45.520;11.018;2023-05-10T10:11:58;5.97;;;4.05;;
31674;SDS011;18276;45.520;11.018;2023-05-10T10:14:26;7.72;;;4.53;;
31674;SDS011;18276;45.520;11.018;2023-05-10T10:16:54;5.90;;;3.10;;
31674;SDS011;18276;45.520;11.018;2023-05-10T10:19:33;4.80;;;3.03;;
31674;SDS011;18276;45.520;11.018;2023-05-10T10:22:02;6.80;;;2.83;;
31674;SDS011;18276;45.520;11.018;2023-05-10T10:24:29;6.50;;;3.05;;
31674;SDS011;18276;45.520;11.018;2023-05-10T10:26:57;5.18;;;3.08;;
31674;SDS011;18276;45.520;11.018;2023-05-10T10:32:51;5.75;;;3.08;;
31674;SDS011;18276;45.520;11.018;2023-05-10T10:35:54;3.50;;;3.00;;
31674;SDS011;18276;45.520;11.018;2023-05-10T10:38:24;3.17;;;2.67;;
31674;SDS011;18276;45.520;11.018;2023-05-10T10:49:42;4.45;;;3.22;;
31674;SDS011;18276;45.520;11.018;2023-05-10T10:52:24;3.10;;;2.50;;
31674;SDS011;18276;45.520;11.018;2023-05-10T11:08:06;4.18;;;2.80;;
31674;SDS011;18276;45.520;11.018;2023-05-10T11:10:37;2.88;;;2.60;;
31674;SDS011;18276;45.520;11.018;2023-05-10T11:13:05;3.55;;;2.58;;
31674;SDS011;18276;45.520;11.018;2023-05-10T11:15:37;3.28;;;2.60;;
31674;SDS011;18276;45.520;11.018;2023-05-10T11:18:23;4.03;;;2.80;;
31674;SDS011;18276;45.520;11.018;2023-05-10T11:20:58;2.67;;;2.22;;
31674;SDS011;18276;45.520;11.018;2023-05-10T11:23:29;3.25;;;2.30;;
31674;SDS011;18276;45.520;11.018;2023-05-10T11:26:14;2.45;;;2.25;;
31674;SDS011;18276;45.520;11.018;2023-05-10T11:28:41;3.15;;;2.70;;
31674;SDS011;18276;45.520;11.018;2023-05-10T11:31:09;4.28;;;3.30;;
31674;SDS011;18276;45.520;11.018;2023-05-10T11:33:47;5.38;;;3.33;;
31674;SDS011;18276;45.520;11.018;2023-05-10T11:36:15;3.72;;;3.17;;
31674;SDS011;18276;45.520;11.018;2023-05-10T11:38:52;3.67;;;3.28;;
31674;SDS011;18276;45.520;11.018;2023-05-10T11:41:19;4.45;;;3.22;;
31674;SDS011;18276;45.520;11.018;2023-05-10T11:43:51;3.67;;;3.22;;
31674;SDS011;18276;45.520;11.018;2023-05-10T11:46:20;5.03;;;3.55;;
31674;SDS011;18276;45.520;11.018;2023-05-10T11:48:49;6.43;;;3.50;;
31674;SDS011;18276;45.520;11.018;2023-05-10T11:51:21;5.47;;;3.45;;
31674;SDS011;18276;45.520;11.018;2023-05-10T11:53:49;5.97;;;3.60;;
31674;SDS011;18276;45.520;11.018;2023-05-10T11:56:18;5.88;;;4.13;;
31674;SDS011;18276;45.520;11.018;2023-05-10T11:58:54;6.70;;;3.90;;
31674;SDS011;18276;45.520;11.018;2023-05-10T12:01:23;3.95;;;3.10;;
31674;SDS011;18276;45.520;11.018;2023-05-10T12:03:51;5.95;;;3.70;;
31674;SDS011;18276;45.520;11.018;2023-05-10T12:06:20;5.05;;;3.92;;
31674;SDS011;18276;45.520;11.018;2023-05-10T12:08:48;4.60;;;3.53;;
31674;SDS011;18276;45.520;11.018;2023-05-10T12:11:20;3.58;;;3.20;;
31674;SDS011;18276;45.520;11.018;2023-05-10T12:13:50;4.53;;;3.05;;
31674;SDS011;18276;45.520;11.018;2023-05-10T12:16:18;5.35;;;4.10;;
31674;SDS011;18276;45.520;11.018;2023-05-10T12:18:54;4.18;;;3.75;;
31674;SDS011;18276;45.520;11.018;2023-05-10T12:21:23;5.28;;;3.60;;
31674;SDS011;18276;45.520;11.018;2023-05-10T12:23:51;5.30;;;4.43;;
31674;SDS011;18276;45.520;11.018;2023-05-10T12:26:23;4.50;;;3.33;;
31674;SDS011;18276;45.520;11.018;2023-05-10T12:28:53;3.80;;;3.50;;
31674;SDS011;18276;45.520;11.018;2023-05-10T12:31:20;3.70;;;3.33;;
31674;SDS011;18276;45.520;11.018;2023-05-10T12:33:48;3.17;;;2.83;;
31674;SDS011;18276;45.520;11.018;2023-05-10T12:36:16;2.67;;;2.30;;
31674;SDS011;18276;45.520;11.018;2023-05-10T12:38:49;4.47;;;2.90;;
31674;SDS011;18276;45.520;11.018;2023-05-10T12:41:18;2.50;;;2.30;;
31674;SDS011;18276;45.520;11.018;2023-05-10T12:43:45;4.43;;;2.35;;
31674;SDS011;18276;45.520;11.018;2023-05-10T12:46:13;3.50;;;2.60;;
31674;SDS011;18276;45.520;11.018;2023-05-10T12:48:42;2.70;;;2.00;;
31674;SDS011;18276;45.520;11.018;2023-05-10T12:51:10;2.67;;;2.13;;
31674;SDS011;18276;45.520;11.018;2023-05-10T12:53:39;2.83;;;1.80;;
31674;SDS011;18276;45.520;11.018;2023-05-10T12:56:10;3.42;;;2.13;;
31674;SDS011;18276;45.520;11.018;2023-05-10T12:58:38;1.90;;;1.70;;
31674;SDS011;18276;45.520;11.018;2023-05-10T13:01:05;2.95;;;2.38;;
31674;SDS011;18276;45.520;11.018;2023-05-10T13:03:32;4.68;;;3.10;;
31674;SDS011;18276;45.520;11.018;2023-05-10T13:05:59;5.68;;;4.10;;
31674;SDS011;18276;45.520;11.018;2023-05-10T13:08:26;8.18;;;4.07;;
31674;SDS011;18276;45.520;11.018;2023-05-10T13:10:53;4.30;;;3.80;;
31674;SDS011;18276;45.520;11.018;2023-05-10T13:13:21;6.55;;;4.78;;
31674;SDS011;18276;45.520;11.018;2023-05-10T13:15:47;6.30;;;3.47;;
31674;SDS011;18276;45.520;11.018;2023-05-10T13:18:14;4.50;;;3.20;;
31674;SDS011;18276;45.520;11.018;2023-05-10T13:20:41;6.13;;;3.88;;
31674;SDS011;18276;45.520;11.018;2023-05-10T13:23:10;6.00;;;3.20;;
31674;SDS011;18276;45.520;11.018;2023-05-10T13:25:37;4.22;;;3.10;;
31674;SDS011;18276;45.520;11.018;2023-05-10T13:28:04;5.30;;;2.97;;
31674;SDS011;18276;45.520;11.018;2023-05-10T13:30:32;3.08;;;2.47;;
31674;SDS011;18276;45.520;11.018;2023-05-10T13:32:58;20.65;;;3.97;;
31674;SDS011;18276;45.520;11.018;2023-05-10T13:35:26;8.63;;;3.08;;
31674;SDS011;18276;45.520;11.018;2023-05-10T13:37:52;8.02;;;3.80;;
31674;SDS011;18276;45.520;11.018;2023-05-10T13:40:23;6.57;;;4.07;;
31674;SDS011;18276;45.520;11.018;2023-05-10T13:42:50;6.10;;;4.43;;
31674;SDS011;18276;45.520;11.018;2023-05-10T13:45:17;15.60;;;3.92;;
31674;SDS011;18276;45.520;11.018;2023-05-10T13:47:44;5.57;;;3.65;;
31674;SDS011;18276;45.520;11.018;2023-05-10T13:50:11;9.63;;;4.70;;
31674;SDS011;18276;45.520;11.018;2023-05-10T13:52:38;7.13;;;3.80;;
31674;SDS011;18276;45.520;11.018;2023-05-10T13:55:05;6.35;;;4.30;;
31674;SDS011;18276;45.520;11.018;2023-05-10T13:57:32;5.88;;;4.30;;
31674;SDS011;18276;45.520;11.018;2023-05-10T14:00:02;7.85;;;5.00;;
31674;SDS011;18276;45.520;11.018;2023-05-10T14:02:33;9.60;;;5.03;;
31674;SDS011;18276;45.520;11.018;2023-05-10T14:05:00;6.05;;;4.20;;
31674;SDS011;18276;45.520;11.018;2023-05-10T14:07:27;6.55;;;4.57;;
31674;SDS011;18276;45.520;11.018;2023-05-10T14:09:54;7.90;;;4.95;;
31674;SDS011;18276;45.520;11.018;2023-05-10T14:12:21;6.80;;;4.68;;
31674;SDS011;18276;45.520;11.018;2023-05-10T14:14:48;7.28;;;4.45;;
31674;SDS011;18276;45.520;11.018;2023-05-10T14:17:15;5.80;;;4.65;;
31674;SDS011;18276;45.520;11.018;2023-05-10T14:19:42;13.93;;;4.95;;
31674;SDS011;18276;45.520;11.018;2023-05-10T14:22:09;8.43;;;4.32;;
31674;SDS011;18276;45.520;11.018;2023-05-10T14:24:37;17.27;;;5.25;;
31674;SDS011;18276;45.520;11.018;2023-05-10T14:27:04;5.30;;;4.05;;
31674;SDS011;18276;45.520;11.018;2023-05-10T14:29:32;6.93;;;4.25;;
31674;SDS011;18276;45.520;11.018;2023-05-10T14:31:59;6.13;;;3.47;;
31674;SDS011;18276;45.520;11.018;2023-05-10T14:34:26;7.55;;;5.45;;
31674;SDS011;18276;45.520;11.018;2023-05-10T14:36:53;9.60;;;4.90;;
31674;SDS011;18276;45.520;11.018;2023-05-10T14:39:20;6.38;;;4.63;;
31674;SDS011;18276;45.520;11.018;2023-05-10T14:41:48;6.55;;;4.45;;
31674;SDS011;18276;45.520;11.018;2023-05-10T14:44:15;8.02;;;5.07;;
31674;SDS011;18276;45.520;11.018;2023-05-10T14:46:42;5.50;;;4.93;;
31674;SDS011;18276;45.520;11.018;2023-05-10T14:49:09;7.30;;;4.90;;
31674;SDS011;18276;45.520;11.018;2023-05-10T14:51:36;5.28;;;4.40;;
31674;SDS011;18276;45.520;11.018;2023-05-10T14:54:03;6.15;;;4.80;;
31674;SDS011;18276;45.520;11.018;2023-05-10T14:56:30;6.70;;;4.50;;
31674;SDS011;18276;45.520;11.018;2023-05-10T14:58:57;5.22;;;4.43;;
31674;SDS011;18276;45.520;11.018;2023-05-10T15:01:25;6.18;;;4.50;;
31674;SDS011;18276;45.520;11.018;2023-05-10T15:03:53;7.40;;;4.50;;
31674;SDS011;18276;45.520;11.018;2023-05-10T15:06:29;5.78;;;4.30;;
31674;SDS011;18276;45.520;11.018;2023-05-10T15:08:58;4.97;;;3.67;;
31674;SDS011;18276;45.520;11.018;2023-05-10T15:11:25;4.88;;;3.92;;
31674;SDS011;18276;45.520;11.018;2023-05-10T15:13:52;4.55;;;3.97;;
31674;SDS011;18276;45.520;11.018;2023-05-10T15:16:19;5.57;;;4.20;;
31674;SDS011;18276;45.520;11.018;2023-05-10T15:18:47;4.22;;;3.63;;
31674;SDS011;18276;45.520;11.018;2023-05-10T15:21:14;6.45;;;4.20;;
31674;SDS011;18276;45.520;11.018;2023-05-10T15:23:41;7.10;;;3.90;;
31674;SDS011;18276;45.520;11.018;2023-05-10T15:26:08;4.95;;;3.40;;
31674;SDS011;18276;45.520;11.018;2023-05-10T15:28:35;5.13;;;3.72;;